San Fernando, Spain
Current Conditions -  °F | °C
As of 12:00 PM on Friday 28 Nov 2014 (Local Time) from LERT Reporting Station
Scattered Clouds Scattered Clouds  
Wind Chill: 63°   Ceiling: Unl
Heat Index: 63°   Visibility: 6mi
Dew Point: 50°   Wind: 0mph
Humidity: 63%   Direction: NA
Pressure: 29.12"   Gusts: NA
Location:  36.48°N, 6.2°W
Report Text: LERT 281100Z 00000KT 9999 FEW015TCU SCT030 17/10 Q0986 TEMPO TSRA SCT010CB
Loading
Personal Weather Stations






























Interactive Weather Map New forecast layout! Learn more

10-Day Weather Forecast

Advertisements
Track Severe Weather on mobile